sensor_id;sensor_type;location;lat;lon;timestamp;pressure;altitude;pressure_sealevel;temperature
58929;BMP180;44713;53.378;10.022;2022-08-04T00:00:07;101213.00;;;22.90
58929;BMP180;44713;53.378;10.022;2022-08-04T00:02:58;101206.00;;;22.90
58929;BMP180;44713;53.378;10.022;2022-08-04T00:11:00;101207.00;;;22.90
58929;BMP180;44713;53.378;10.022;2022-08-04T00:13:30;101206.00;;;22.80
58929;BMP180;44713;53.378;10.022;2022-08-04T00:15:58;101205.00;;;22.80
58929;BMP180;44713;53.378;10.022;2022-08-04T00:18:33;101197.00;;;22.80
58929;BMP180;44713;53.378;10.022;2022-08-04T00:21:02;101208.00;;;22.70
58929;BMP180;44713;53.378;10.022;2022-08-04T00:23:29;101201.00;;;22.60
58929;BMP180;44713;53.378;10.022;2022-08-04T00:25:57;101194.00;;;22.60
58929;BMP180;44713;53.378;10.022;2022-08-04T00:28:23;101194.00;;;22.50
58929;BMP180;44713;53.378;10.022;2022-08-04T00:30:50;101201.00;;;22.50
58929;BMP180;44713;53.378;10.022;2022-08-04T00:33:17;101202.00;;;22.40
58929;BMP180;44713;53.378;10.022;2022-08-04T00:35:43;101202.00;;;22.40
58929;BMP180;44713;53.378;10.022;2022-08-04T00:38:09;101203.00;;;22.40
58929;BMP180;44713;53.378;10.022;2022-08-04T00:43:38;101208.00;;;22.30
58929;BMP180;44713;53.378;10.022;2022-08-04T00:46:24;101201.00;;;22.30
58929;BMP180;44713;53.378;10.022;2022-08-04T00:52:14;101205.00;;;22.20
58929;BMP180;44713;53.378;10.022;2022-08-04T00:55:16;101201.00;;;22.20
58929;BMP180;44713;53.378;10.022;2022-08-04T00:57:49;101199.00;;;22.20
58929;BMP180;44713;53.378;10.022;2022-08-04T01:00:16;101198.00;;;22.20
58929;BMP180;44713;53.378;10.022;2022-08-04T01:03:18;101192.00;;;22.20
58929;BMP180;44713;53.378;10.022;2022-08-04T01:06:01;101199.00;;;22.10
58929;BMP180;44713;53.378;10.022;2022-08-04T01:11:26;101191.00;;;22.00
58929;BMP180;44713;53.378;10.022;2022-08-04T01:14:12;101192.00;;;21.90
58929;BMP180;44713;53.378;10.022;2022-08-04T01:16:48;101192.00;;;21.90
58929;BMP180;44713;53.378;10.022;2022-08-04T01:30:48;101175.00;;;21.60
58929;BMP180;44713;53.378;10.022;2022-08-04T01:33:16;101172.00;;;21.60
58929;BMP180;44713;53.378;10.022;2022-08-04T01:35:47;101175.00;;;21.60
58929;BMP180;44713;53.378;10.022;2022-08-04T01:38:25;101184.00;;;21.60
58929;BMP180;44713;53.378;10.022;2022-08-04T01:40:55;101171.00;;;21.50
58929;BMP180;44713;53.378;10.022;2022-08-04T01:43:22;101168.00;;;21.50
58929;BMP180;44713;53.378;10.022;2022-08-04T01:45:50;101171.00;;;21.50
58929;BMP180;44713;53.378;10.022;2022-08-04T01:48:22;101171.00;;;21.50
58929;BMP180;44713;53.378;10.022;2022-08-04T01:50:51;101168.00;;;21.40
58929;BMP180;44713;53.378;10.022;2022-08-04T01:53:18;101164.00;;;21.50
58929;BMP180;44713;53.378;10.022;2022-08-04T01:55:45;101160.00;;;21.40
58929;BMP180;44713;53.378;10.022;2022-08-04T01:58:14;101153.00;;;21.30
58929;BMP180;44713;53.378;10.022;2022-08-04T02:00:49;101160.00;;;21.20
58929;BMP180;44713;53.378;10.022;2022-08-04T02:03:19;101165.00;;;21.10
58929;BMP180;44713;53.378;10.022;2022-08-04T02:05:47;101159.00;;;21.10
58929;BMP180;44713;53.378;10.022;2022-08-04T02:08:33;101151.00;;;21.10
58929;BMP180;44713;53.378;10.022;2022-08-04T02:11:13;101155.00;;;21.00
58929;BMP180;44713;53.378;10.022;2022-08-04T02:16:37;101157.00;;;21.00
58929;BMP180;44713;53.378;10.022;2022-08-04T02:21:55;101154.00;;;21.00
58929;BMP180;44713;53.378;10.022;2022-08-04T02:24:25;101149.00;;;21.00
58929;BMP180;44713;53.378;10.022;2022-08-04T02:26:52;101152.00;;;21.00
58929;BMP180;44713;53.378;10.022;2022-08-04T02:29:50;101148.00;;;20.90
58929;BMP180;44713;53.378;10.022;2022-08-04T02:32:27;101142.00;;;20.80
58929;BMP180;44713;53.378;10.022;2022-08-04T02:35:00;101146.00;;;20.80
58929;BMP180;44713;53.378;10.022;2022-08-04T02:37:30;101146.00;;;20.80
58929;BMP180;44713;53.378;10.022;2022-08-04T02:39:58;101149.00;;;20.70
58929;BMP180;44713;53.378;10.022;2022-08-04T02:42:25;101143.00;;;20.70
58929;BMP180;44713;53.378;10.022;2022-08-04T02:44:52;101144.00;;;20.70
58929;BMP180;44713;53.378;10.022;2022-08-04T02:47:20;101143.00;;;20.60
58929;BMP180;44713;53.378;10.022;2022-08-04T02:49:49;101141.00;;;20.60
58929;BMP180;44713;53.378;10.022;2022-08-04T02:52:15;101137.00;;;20.50
58929;BMP180;44713;53.378;10.022;2022-08-04T02:54:43;101134.00;;;20.50
58929;BMP180;44713;53.378;10.022;2022-08-04T02:57:11;101133.00;;;20.50
58929;BMP180;44713;53.378;10.022;2022-08-04T03:02:58;101135.00;;;20.40
58929;BMP180;44713;53.378;10.022;2022-08-04T03:05:43;101142.00;;;20.40
58929;BMP180;44713;53.378;10.022;2022-08-04T03:08:24;101137.00;;;20.40
58929;BMP180;44713;53.378;10.022;2022-08-04T03:11:09;101138.00;;;20.30
58929;BMP180;44713;53.378;10.022;2022-08-04T03:22:24;101126.00;;;20.40
58929;BMP180;44713;53.378;10.022;2022-08-04T03:28:42;101136.00;;;20.20
58929;BMP180;44713;53.378;10.022;2022-08-04T03:33:43;101131.00;;;20.30
58929;BMP180;44713;53.378;10.022;2022-08-04T03:36:32;101140.00;;;20.30
58929;BMP180;44713;53.378;10.022;2022-08-04T03:42:06;101139.00;;;20.30
58929;BMP180;44713;53.378;10.022;2022-08-04T04:04:07;101131.00;;;20.10
58929;BMP180;44713;53.378;10.022;2022-08-04T04:06:48;101137.00;;;20.00
58929;BMP180;44713;53.378;10.022;2022-08-04T04:18:15;101125.00;;;20.00
58929;BMP180;44713;53.378;10.022;2022-08-04T04:20:56;101133.00;;;20.00
58929;BMP180;44713;53.378;10.022;2022-08-04T04:23:39;101133.00;;;20.00
58929;BMP180;44713;53.378;10.022;2022-08-04T04:26:39;101129.00;;;20.00
58929;BMP180;44713;53.378;10.022;2022-08-04T04:29:40;101130.00;;;20.00
58929;BMP180;44713;53.378;10.022;2022-08-04T04:32:22;101126.00;;;19.90
58929;BMP180;44713;53.378;10.022;2022-08-04T04:38:06;101123.00;;;20.00
58929;BMP180;44713;53.378;10.022;2022-08-04T04:40:58;101124.00;;;20.00
58929;BMP180;44713;53.378;10.022;2022-08-04T04:49:07;101130.00;;;20.10
58929;BMP180;44713;53.378;10.022;2022-08-04T04:51:57;101121.00;;;20.10
58929;BMP180;44713;53.378;10.022;2022-08-04T04:54:40;101121.00;;;20.20
58929;BMP180;44713;53.378;10.022;2022-08-04T04:57:19;101116.00;;;20.20
58929;BMP180;44713;53.378;10.022;2022-08-04T04:59:56;101116.00;;;20.20
58929;BMP180;44713;53.378;10.022;2022-08-04T05:02:49;101110.00;;;20.20
58929;BMP180;44713;53.378;10.022;2022-08-04T05:11:15;101120.00;;;20.20
58929;BMP180;44713;53.378;10.022;2022-08-04T05:13:47;101122.00;;;20.30
58929;BMP180;44713;53.378;10.022;2022-08-04T05:16:31;101121.00;;;20.30
58929;BMP180;44713;53.378;10.022;2022-08-04T05:19:06;101123.00;;;20.40
58929;BMP180;44713;53.378;10.022;2022-08-04T05:21:42;101118.00;;;20.40
58929;BMP180;44713;53.378;10.022;2022-08-04T05:24:11;101112.00;;;20.40
58929;BMP180;44713;53.378;10.022;2022-08-04T05:26:43;101121.00;;;20.50
58929;BMP180;44713;53.378;10.022;2022-08-04T05:29:15;101112.00;;;20.60
58929;BMP180;44713;53.378;10.022;2022-08-04T05:31:48;101108.00;;;20.70
58929;BMP180;44713;53.378;10.022;2022-08-04T05:34:20;101103.00;;;20.80
58929;BMP180;44713;53.378;10.022;2022-08-04T05:36:48;101102.00;;;20.90
58929;BMP180;44713;53.378;10.022;2022-08-04T05:39:18;101102.00;;;21.00
58929;BMP180;44713;53.378;10.022;2022-08-04T05:41:47;101100.00;;;21.10
58929;BMP180;44713;53.378;10.022;2022-08-04T05:44:18;101092.00;;;21.10
58929;BMP180;44713;53.378;10.022;2022-08-04T05:46:46;101090.00;;;21.30
58929;BMP180;44713;53.378;10.022;2022-08-04T05:49:13;101087.00;;;21.30
58929;BMP180;44713;53.378;10.022;2022-08-04T05:51:39;101087.00;;;21.50
58929;BMP180;44713;53.378;10.022;2022-08-04T05:54:05;101087.00;;;21.60
58929;BMP180;44713;53.378;10.022;2022-08-04T05:56:33;101088.00;;;21.60
58929;BMP180;44713;53.378;10.022;2022-08-04T05:59:00;101085.00;;;21.70
58929;BMP180;44713;53.378;10.022;2022-08-04T06:01:28;101079.00;;;21.80
58929;BMP180;44713;53.378;10.022;2022-08-04T06:03:56;101073.00;;;21.90
58929;BMP180;44713;53.378;10.022;2022-08-04T06:06:23;101075.00;;;22.00
58929;BMP180;44713;53.378;10.022;2022-08-04T06:08:49;101076.00;;;22.10
58929;BMP180;44713;53.378;10.022;2022-08-04T06:11:16;101077.00;;;22.20
58929;BMP180;44713;53.378;10.022;2022-08-04T06:13:49;101074.00;;;22.30
58929;BMP180;44713;53.378;10.022;2022-08-04T06:16:15;101071.00;;;22.30
58929;BMP180;44713;53.378;10.022;2022-08-04T06:18:44;101074.00;;;22.40
58929;BMP180;44713;53.378;10.022;2022-08-04T06:21:12;101072.00;;;22.60
58929;BMP180;44713;53.378;10.022;2022-08-04T06:23:39;101061.00;;;22.60
58929;BMP180;44713;53.378;10.022;2022-08-04T06:26:08;101062.00;;;22.70
58929;BMP180;44713;53.378;10.022;2022-08-04T06:28:34;101062.00;;;22.80
58929;BMP180;44713;53.378;10.022;2022-08-04T06:31:01;101060.00;;;22.80
58929;BMP180;44713;53.378;10.022;2022-08-04T06:33:31;101066.00;;;22.90
58929;BMP180;44713;53.378;10.022;2022-08-04T06:36:04;101057.00;;;23.00
58929;BMP180;44713;53.378;10.022;2022-08-04T06:38:32;101060.00;;;23.10
58929;BMP180;44713;53.378;10.022;2022-08-04T06:40:58;101061.00;;;23.20
58929;BMP180;44713;53.378;10.022;2022-08-04T06:43:25;101058.00;;;23.30
58929;BMP180;44713;53.378;10.022;2022-08-04T06:45:51;101053.00;;;23.40
58929;BMP180;44713;53.378;10.022;2022-08-04T06:48:17;101049.00;;;23.50
58929;BMP180;44713;53.378;10.022;2022-08-04T06:50:48;101050.00;;;23.60
58929;BMP180;44713;53.378;10.022;2022-08-04T06:53:14;101054.00;;;23.70
58929;BMP180;44713;53.378;10.022;2022-08-04T06:55:42;101047.00;;;23.80
58929;BMP180;44713;53.378;10.022;2022-08-04T06:58:09;101048.00;;;23.90
58929;BMP180;44713;53.378;10.022;2022-08-04T07:00:35;101044.00;;;24.00
58929;BMP180;44713;53.378;10.022;2022-08-04T07:03:03;101043.00;;;24.10
58929;BMP180;44713;53.378;10.022;2022-08-04T07:05:30;101039.00;;;24.30
58929;BMP180;44713;53.378;10.022;2022-08-04T07:07:55;101033.00;;;24.40
58929;BMP180;44713;53.378;10.022;2022-08-04T07:10:22;101035.00;;;24.50
58929;BMP180;44713;53.378;10.022;2022-08-04T07:12:48;101036.00;;;24.60
58929;BMP180;44713;53.378;10.022;2022-08-04T07:15:15;101036.00;;;24.70
58929;BMP180;44713;53.378;10.022;2022-08-04T07:17:42;101037.00;;;24.80
58929;BMP180;44713;53.378;10.022;2022-08-04T07:20:09;101034.00;;;25.00
58929;BMP180;44713;53.378;10.022;2022-08-04T07:22:34;101035.00;;;25.20
58929;BMP180;44713;53.378;10.022;2022-08-04T07:25:00;101033.00;;;25.20
58929;BMP180;44713;53.378;10.022;2022-08-04T07:27:26;101027.00;;;25.30
58929;BMP180;44713;53.378;10.022;2022-08-04T07:29:51;101029.00;;;25.50
58929;BMP180;44713;53.378;10.022;2022-08-04T07:32:21;101029.00;;;25.60
58929;BMP180;44713;53.378;10.022;2022-08-04T07:34:48;101023.00;;;25.70
58929;BMP180;44713;53.378;10.022;2022-08-04T07:37:14;101025.00;;;25.90
58929;BMP180;44713;53.378;10.022;2022-08-04T07:39:39;101018.00;;;26.00
58929;BMP180;44713;53.378;10.022;2022-08-04T07:42:04;101013.00;;;26.00
58929;BMP180;44713;53.378;10.022;2022-08-04T07:44:31;101019.00;;;26.20
58929;BMP180;44713;53.378;10.022;2022-08-04T07:46:57;101020.00;;;26.20
58929;BMP180;44713;53.378;10.022;2022-08-04T07:49:23;101011.00;;;26.40
58929;BMP180;44713;53.378;10.022;2022-08-04T07:51:51;101012.00;;;26.50
58929;BMP180;44713;53.378;10.022;2022-08-04T07:54:17;101010.00;;;26.80
58929;BMP180;44713;53.378;10.022;2022-08-04T07:56:43;101010.00;;;26.90
58929;BMP180;44713;53.378;10.022;2022-08-04T07:59:09;100995.00;;;27.00
58929;BMP180;44713;53.378;10.022;2022-08-04T08:01:35;100999.00;;;27.10
58929;BMP180;44713;53.378;10.022;2022-08-04T08:04:03;100997.00;;;27.20
58929;BMP180;44713;53.378;10.022;2022-08-04T08:06:29;100999.00;;;27.30
58929;BMP180;44713;53.378;10.022;2022-08-04T08:08:55;101001.00;;;27.40
58929;BMP180;44713;53.378;10.022;2022-08-04T08:11:22;100996.00;;;27.60
58929;BMP180;44713;53.378;10.022;2022-08-04T08:13:48;101000.00;;;27.80
58929;BMP180;44713;53.378;10.022;2022-08-04T08:16:13;101004.00;;;27.90
58929;BMP180;44713;53.378;10.022;2022-08-04T08:18:39;100997.00;;;28.00
58929;BMP180;44713;53.378;10.022;2022-08-04T08:21:05;100994.00;;;28.30
58929;BMP180;44713;53.378;10.022;2022-08-04T08:23:33;100996.00;;;28.40
58929;BMP180;44713;53.378;10.022;2022-08-04T08:25:59;100991.00;;;28.50
58929;BMP180;44713;53.378;10.022;2022-08-04T08:28:25;100994.00;;;28.50
58929;BMP180;44713;53.378;10.022;2022-08-04T08:30:50;100994.00;;;28.60
58929;BMP180;44713;53.378;10.022;2022-08-04T08:33:16;100988.00;;;28.70
58929;BMP180;44713;53.378;10.022;2022-08-04T08:35:52;100985.00;;;28.80
58929;BMP180;44713;53.378;10.022;2022-08-04T08:39:04;100983.00;;;29.00
58929;BMP180;44713;53.378;10.022;2022-08-04T08:42:02;100983.00;;;29.20
58929;BMP180;44713;53.378;10.022;2022-08-04T08:52:31;100975.00;;;30.00
58929;BMP180;44713;53.378;10.022;2022-08-04T08:56:06;100966.00;;;30.00
58929;BMP180;44713;53.378;10.022;2022-08-04T09:00:32;100970.00;;;30.20
58929;BMP180;44713;53.378;10.022;2022-08-04T09:03:20;100978.00;;;30.40
58929;BMP180;44713;53.378;10.022;2022-08-04T09:06:17;100974.00;;;30.60
58929;BMP180;44713;53.378;10.022;2022-08-04T09:08:54;100972.00;;;30.80
58929;BMP180;44713;53.378;10.022;2022-08-04T09:11:27;100976.00;;;31.10
58929;BMP180;44713;53.378;10.022;2022-08-04T09:14:04;100968.00;;;31.30
58929;BMP180;44713;53.378;10.022;2022-08-04T09:16:41;100979.00;;;31.50
58929;BMP180;44713;53.378;10.022;2022-08-04T09:19:15;100975.00;;;31.70
58929;BMP180;44713;53.378;10.022;2022-08-04T09:22:03;100958.00;;;31.90
58929;BMP180;44713;53.378;10.022;2022-08-04T09:24:41;100963.00;;;32.10
58929;BMP180;44713;53.378;10.022;2022-08-04T09:27:20;100959.00;;;32.30
58929;BMP180;44713;53.378;10.022;2022-08-04T09:29:49;100959.00;;;32.50
58929;BMP180;44713;53.378;10.022;2022-08-04T09:38:09;100950.00;;;33.00
58929;BMP180;44713;53.378;10.022;2022-08-04T09:40:55;100953.00;;;33.20
58929;BMP180;44713;53.378;10.022;2022-08-04T09:52:05;100947.00;;;33.90
58929;BMP180;44713;53.378;10.022;2022-08-04T09:54:51;100944.00;;;34.10
58929;BMP180;44713;53.378;10.022;2022-08-04T09:57:40;100945.00;;;34.30
58929;BMP180;44713;53.378;10.022;2022-08-04T10:00:12;100945.00;;;34.60
58929;BMP180;44713;53.378;10.022;2022-08-04T10:02:52;100938.00;;;34.70
58929;BMP180;44713;53.378;10.022;2022-08-04T10:05:24;100933.00;;;34.90
58929;BMP180;44713;53.378;10.022;2022-08-04T10:08:03;100935.00;;;34.90
58929;BMP180;44713;53.378;10.022;2022-08-04T10:10:49;100934.00;;;35.20
58929;BMP180;44713;53.378;10.022;2022-08-04T10:13:22;100928.00;;;35.40
58929;BMP180;44713;53.378;10.022;2022-08-04T10:18:39;100928.00;;;35.10
58929;BMP180;44713;53.378;10.022;2022-08-04T10:21:18;100922.00;;;35.10
58929;BMP180;44713;53.378;10.022;2022-08-04T10:26:57;100925.00;;;34.90
58929;BMP180;44713;53.378;10.022;2022-08-04T10:29:31;100926.00;;;34.80
58929;BMP180;44713;53.378;10.022;2022-08-04T10:32:19;100928.00;;;35.10
58929;BMP180;44713;53.378;10.022;2022-08-04T10:35:08;100928.00;;;35.10
58929;BMP180;44713;53.378;10.022;2022-08-04T10:37:49;100926.00;;;35.00
58929;BMP180;44713;53.378;10.022;2022-08-04T10:41:24;100922.00;;;34.80
58929;BMP180;44713;53.378;10.022;2022-08-04T10:46:13;100918.00;;;34.70
58929;BMP180;44713;53.378;10.022;2022-08-04T10:48:52;100911.00;;;34.70
58929;BMP180;44713;53.378;10.022;2022-08-04T10:54:06;100909.00;;;35.00
58929;BMP180;44713;53.378;10.022;2022-08-04T10:56:37;100899.00;;;35.00
58929;BMP180;44713;53.378;10.022;2022-08-04T10:59:32;100908.00;;;35.00
58929;BMP180;44713;53.378;10.022;2022-08-04T11:02:17;100897.00;;;35.10
58929;BMP180;44713;53.378;10.022;2022-08-04T11:04:46;100901.00;;;35.50
58929;BMP180;44713;53.378;10.022;2022-08-04T11:07:15;100902.00;;;35.40
58929;BMP180;44713;53.378;10.022;2022-08-04T11:09:42;100892.00;;;35.60
58929;BMP180;44713;53.378;10.022;2022-08-04T11:12:24;100897.00;;;36.10
58929;BMP180;44713;53.378;10.022;2022-08-04T11:17:23;100882.00;;;36.50
58929;BMP180;44713;53.378;10.022;2022-08-04T11:19:58;100875.00;;;36.60
58929;BMP180;44713;53.378;10.022;2022-08-04T11:22:26;100885.00;;;37.00
58929;BMP180;44713;53.378;10.022;2022-08-04T11:24:56;100887.00;;;37.10
58929;BMP180;44713;53.378;10.022;2022-08-04T11:30:43;100875.00;;;37.10
58929;BMP180;44713;53.378;10.022;2022-08-04T11:35:51;100871.00;;;37.60
58929;BMP180;44713;53.378;10.022;2022-08-04T11:38:26;100867.00;;;37.90
58929;BMP180;44713;53.378;10.022;2022-08-04T11:40:56;100873.00;;;38.20
58929;BMP180;44713;53.378;10.022;2022-08-04T11:43:31;100873.00;;;38.10
58929;BMP180;44713;53.378;10.022;2022-08-04T11:46:04;100874.00;;;38.30
58929;BMP180;44713;53.378;10.022;2022-08-04T11:48:40;100879.00;;;38.10
58929;BMP180;44713;53.378;10.022;2022-08-04T11:51:09;100878.00;;;38.40
58929;BMP180;44713;53.378;10.022;2022-08-04T11:53:37;100883.00;;;38.00
58929;BMP180;44713;53.378;10.022;2022-08-04T11:56:08;100876.00;;;38.00
58929;BMP180;44713;53.378;10.022;2022-08-04T11:58:34;100877.00;;;37.80
58929;BMP180;44713;53.378;10.022;2022-08-04T12:01:24;100881.00;;;37.80
58929;BMP180;44713;53.378;10.022;2022-08-04T12:06:37;100886.00;;;37.60
58929;BMP180;44713;53.378;10.022;2022-08-04T12:14:29;100880.00;;;37.20
58929;BMP180;44713;53.378;10.022;2022-08-04T12:16:59;100871.00;;;37.50
58929;BMP180;44713;53.378;10.022;2022-08-04T12:22:20;100870.00;;;38.30
58929;BMP180;44713;53.378;10.022;2022-08-04T12:24:52;100866.00;;;38.50
58929;BMP180;44713;53.378;10.022;2022-08-04T12:27:23;100871.00;;;38.80
58929;BMP180;44713;53.378;10.022;2022-08-04T12:29:50;100867.00;;;39.00
58929;BMP180;44713;53.378;10.022;2022-08-04T12:32:21;100862.00;;;39.10
58929;BMP180;44713;53.378;10.022;2022-08-04T12:35:02;100866.00;;;39.00
58929;BMP180;44713;53.378;10.022;2022-08-04T12:37:50;100868.00;;;38.90
58929;BMP180;44713;53.378;10.022;2022-08-04T12:40:30;100865.00;;;38.70
58929;BMP180;44713;53.378;10.022;2022-08-04T12:45:26;100849.00;;;38.90
58929;BMP180;44713;53.378;10.022;2022-08-04T12:47:56;100849.00;;;38.40
58929;BMP180;44713;53.378;10.022;2022-08-04T12:50:23;100849.00;;;38.60
58929;BMP180;44713;53.378;10.022;2022-08-04T12:52:51;100848.00;;;38.90
58929;BMP180;44713;53.378;10.022;2022-08-04T12:55:19;100848.00;;;38.50
58929;BMP180;44713;53.378;10.022;2022-08-04T12:57:49;100852.00;;;38.30
58929;BMP180;44713;53.378;10.022;2022-08-04T13:00:26;100847.00;;;38.80
58929;BMP180;44713;53.378;10.022;2022-08-04T13:02:53;100843.00;;;39.00
58929;BMP180;44713;53.378;10.022;2022-08-04T13:05:24;100851.00;;;39.10
58929;BMP180;44713;53.378;10.022;2022-08-04T13:07:52;100848.00;;;38.60
58929;BMP180;44713;53.378;10.022;2022-08-04T13:10:21;100846.00;;;38.20
58929;BMP180;44713;53.378;10.022;2022-08-04T13:12:57;100844.00;;;38.30
58929;BMP180;44713;53.378;10.022;2022-08-04T13:15:24;100844.00;;;38.90
58929;BMP180;44713;53.378;10.022;2022-08-04T13:20:28;100835.00;;;37.80
58929;BMP180;44713;53.378;10.022;2022-08-04T13:23:05;100844.00;;;37.80
58929;BMP180;44713;53.378;10.022;2022-08-04T13:25:33;100833.00;;;38.10
58929;BMP180;44713;53.378;10.022;2022-08-04T13:28:00;100827.00;;;38.40
58929;BMP180;44713;53.378;10.022;2022-08-04T13:30:27;100837.00;;;38.80
58929;BMP180;44713;53.378;10.022;2022-08-04T13:33:01;100830.00;;;38.50
58929;BMP180;44713;53.378;10.022;2022-08-04T13:35:27;100828.00;;;38.00
58929;BMP180;44713;53.378;10.022;2022-08-04T13:37:55;100828.00;;;37.60
58929;BMP180;44713;53.378;10.022;2022-08-04T13:40:22;100825.00;;;37.20
58929;BMP180;44713;53.378;10.022;2022-08-04T13:42:51;100817.00;;;37.40
58929;BMP180;44713;53.378;10.022;2022-08-04T13:45:24;100816.00;;;37.90
58929;BMP180;44713;53.378;10.022;2022-08-04T13:47:51;100813.00;;;38.40
58929;BMP180;44713;53.378;10.022;2022-08-04T13:50:27;100805.00;;;38.40
58929;BMP180;44713;53.378;10.022;2022-08-04T13:52:56;100805.00;;;37.80
58929;BMP180;44713;53.378;10.022;2022-08-04T13:55:35;100800.00;;;37.50
58929;BMP180;44713;53.378;10.022;2022-08-04T13:58:06;100795.00;;;37.90
58929;BMP180;44713;53.378;10.022;2022-08-04T14:03:15;100786.00;;;38.50
58929;BMP180;44713;53.378;10.022;2022-08-04T14:05:44;100788.00;;;38.70
58929;BMP180;44713;53.378;10.022;2022-08-04T14:08:28;100780.00;;;38.90
58929;BMP180;44713;53.378;10.022;2022-08-04T14:10:55;100776.00;;;39.00
58929;BMP180;44713;53.378;10.022;2022-08-04T14:13:29;100772.00;;;38.90
58929;BMP180;44713;53.378;10.022;2022-08-04T14:15:55;100772.00;;;39.00
58929;BMP180;44713;53.378;10.022;2022-08-04T14:18:23;100764.00;;;38.90
58929;BMP180;44713;53.378;10.022;2022-08-04T14:23:24;100763.00;;;39.10
58929;BMP180;44713;53.378;10.022;2022-08-04T14:25:50;100767.00;;;39.10
58929;BMP180;44713;53.378;10.022;2022-08-04T14:28:30;100773.00;;;39.20
58929;BMP180;44713;53.378;10.022;2022-08-04T14:31:10;100774.00;;;39.10
58929;BMP180;44713;53.378;10.022;2022-08-04T14:33:38;100780.00;;;39.10
58929;BMP180;44713;53.378;10.022;2022-08-04T14:36:05;100793.00;;;38.70
58929;BMP180;44713;53.378;10.022;2022-08-04T14:38:57;100791.00;;;38.30
58929;BMP180;44713;53.378;10.022;2022-08-04T14:41:27;100788.00;;;38.20
58929;BMP180;44713;53.378;10.022;2022-08-04T14:43:56;100781.00;;;37.70
58929;BMP180;44713;53.378;10.022;2022-08-04T14:46:23;100775.00;;;37.40
58929;BMP180;44713;53.378;10.022;2022-08-04T14:51:24;100784.00;;;36.80
58929;BMP180;44713;53.378;10.022;2022-08-04T14:53:50;100785.00;;;36.80
58929;BMP180;44713;53.378;10.022;2022-08-04T14:56:15;100779.00;;;36.60
58929;BMP180;44713;53.378;10.022;2022-08-04T14:58:41;100788.00;;;36.60
58929;BMP180;44713;53.378;10.022;2022-08-04T15:01:08;100797.00;;;36.50
58929;BMP180;44713;53.378;10.022;2022-08-04T15:03:34;100795.00;;;36.20
58929;BMP180;44713;53.378;10.022;2022-08-04T15:06:03;100807.00;;;36.00
58929;BMP180;44713;53.378;10.022;2022-08-04T15:08:29;100816.00;;;35.70
58929;BMP180;44713;53.378;10.022;2022-08-04T15:10:54;100838.00;;;35.30
58929;BMP180;44713;53.378;10.022;2022-08-04T15:13:25;100833.00;;;34.30
58929;BMP180;44713;53.378;10.022;2022-08-04T15:15:51;100817.00;;;33.20
58929;BMP180;44713;53.378;10.022;2022-08-04T15:18:16;100829.00;;;32.90
58929;BMP180;44713;53.378;10.022;2022-08-04T15:20:42;100843.00;;;32.30
58929;BMP180;44713;53.378;10.022;2022-08-04T15:23:07;100867.00;;;32.10
58929;BMP180;44713;53.378;10.022;2022-08-04T15:25:37;100872.00;;;31.70
58929;BMP180;44713;53.378;10.022;2022-08-04T15:28:03;100876.00;;;31.20
58929;BMP180;44713;53.378;10.022;2022-08-04T15:30:30;100907.00;;;30.80
58929;BMP180;44713;53.378;10.022;2022-08-04T15:32:59;100999.00;;;30.30
58929;BMP180;44713;53.378;10.022;2022-08-04T15:35:26;101076.00;;;29.10
58929;BMP180;44713;53.378;10.022;2022-08-04T15:40:29;101108.00;;;26.60
58929;BMP180;44713;53.378;10.022;2022-08-04T15:43:10;101081.00;;;26.60
58929;BMP180;44713;53.378;10.022;2022-08-04T15:45:53;101092.00;;;25.80
58929;BMP180;44713;53.378;10.022;2022-08-04T15:58:51;101331.00;;;22.60
58929;BMP180;44713;53.378;10.022;2022-08-04T16:01:17;101266.00;;;22.10
58929;BMP180;44713;53.378;10.022;2022-08-04T16:03:44;101198.00;;;22.70
58929;BMP180;44713;53.378;10.022;2022-08-04T16:16:45;100973.00;;;23.30
58929;BMP180;44713;53.378;10.022;2022-08-04T16:19:44;100947.00;;;23.60
58929;BMP180;44713;53.378;10.022;2022-08-04T16:22:31;100930.00;;;23.90
58929;BMP180;44713;53.378;10.022;2022-08-04T16:24:56;100926.00;;;24.20
58929;BMP180;44713;53.378;10.022;2022-08-04T16:27:38;100937.00;;;24.20
58929;BMP180;44713;53.378;10.022;2022-08-04T16:30:05;100939.00;;;24.40
58929;BMP180;44713;53.378;10.022;2022-08-04T16:32:45;100958.00;;;24.50
58929;BMP180;44713;53.378;10.022;2022-08-04T16:35:22;100963.00;;;24.40
58929;BMP180;44713;53.378;10.022;2022-08-04T16:37:52;100973.00;;;24.20
58929;BMP180;44713;53.378;10.022;2022-08-04T16:40:34;100982.00;;;23.90
58929;BMP180;44713;53.378;10.022;2022-08-04T16:43:09;100990.00;;;23.70
58929;BMP180;44713;53.378;10.022;2022-08-04T16:45:52;100997.00;;;23.70
58929;BMP180;44713;53.378;10.022;2022-08-04T16:48:23;100995.00;;;23.70
58929;BMP180;44713;53.378;10.022;2022-08-04T16:50:52;101000.00;;;23.70
58929;BMP180;44713;53.378;10.022;2022-08-04T16:53:18;100986.00;;;23.80
58929;BMP180;44713;53.378;10.022;2022-08-04T16:55:51;100980.00;;;24.00
58929;BMP180;44713;53.378;10.022;2022-08-04T16:58:27;100970.00;;;24.20
58929;BMP180;44713;53.378;10.022;2022-08-04T17:00:53;100964.00;;;24.20
58929;BMP180;44713;53.378;10.022;2022-08-04T17:03:18;100958.00;;;24.30
58929;BMP180;44713;53.378;10.022;2022-08-04T17:05:44;100955.00;;;24.30
58929;BMP180;44713;53.378;10.022;2022-08-04T17:08:10;100938.00;;;24.70
58929;BMP180;44713;53.378;10.022;2022-08-04T17:10:38;100927.00;;;24.90
58929;BMP180;44713;53.378;10.022;2022-08-04T17:15:51;100934.00;;;25.20
58929;BMP180;44713;53.378;10.022;2022-08-04T17:18:24;100941.00;;;25.70
58929;BMP180;44713;53.378;10.022;2022-08-04T17:20:51;100944.00;;;25.40
58929;BMP180;44713;53.378;10.022;2022-08-04T17:23:36;100939.00;;;25.70